Time;durP1;ratioP1;P1;durP2;ratioP2;P2;SDS_P1;SDS_P2;PMS_P1;PMS_P2;Temp;Humidity;BMP_temperature;BMP_pressure;BME280_temperature;BME280_humidity;BME280_pressure;Samples;Min_cycle;Max_cycle;Signal;HPM_P1;HPM_P2
2022/09/29 00:00:12;;;;;;;7.20;3.53;;;;;;;19.97;54.43;98681.94;5111770;28;20042;-36
2022/09/29 00:02:37;;;;;;;7.10;3.70;;;;;;;20.05;53.96;98676.72;5111709;28;20039;-36
2022/09/29 00:05:03;;;;;;;7.53;3.67;;;;;;;20.13;53.46;98691.44;5111799;28;20028;-36
2022/09/29 00:07:31;;;;;;;10.80;3.75;;;;;;;20.04;54.02;98690.50;5111281;28;20144;-37
2022/09/29 00:09:56;;;;;;;5.30;3.50;;;;;;;20.09;54.08;98679.63;5111729;28;20028;-37
2022/09/29 00:12:22;;;;;;;5.70;3.38;;;;;;;19.86;54.25;98684.78;5111662;28;20403;-37
2022/09/29 00:14:47;;;;;;;8.30;3.55;;;;;;;19.75;54.57;98677.13;5111614;28;20019;-37
2022/09/29 00:17:13;;;;;;;10.10;3.50;;;;;;;19.67;55.17;98681.25;5111448;28;20510;-37
2022/09/29 00:19:38;;;;;;;7.30;3.90;;;;;;;19.72;55.28;98675.78;5111117;28;20115;-37
2022/09/29 00:22:04;;;;;;;6.55;3.65;;;;;;;19.73;55.41;98666.63;5111468;28;20139;-36
2022/09/29 00:24:30;;;;;;;8.48;3.13;;;;;;;19.80;55.04;98677.03;5111199;28;20031;-37
2022/09/29 00:26:55;;;;;;;6.00;3.38;;;;;;;19.88;54.74;98673.72;5111293;28;20019;-37
2022/09/29 00:29:21;;;;;;;6.05;3.45;;;;;;;19.90;54.80;98666.13;5111142;28;20435;-37
2022/09/29 00:31:46;;;;;;;6.63;3.67;;;;;;;19.85;54.83;98666.97;5111527;28;20380;-37
2022/09/29 00:34:11;;;;;;;5.65;3.60;;;;;;;19.72;55.15;98663.13;5111320;28;20084;-36
2022/09/29 00:36:37;;;;;;;6.93;3.63;;;;;;;19.64;54.59;98654.81;5111100;28;20394;-39
2022/09/29 00:39:03;;;;;;;8.50;3.70;;;;;;;19.69;54.40;98650.16;5110982;28;20052;-36
2022/09/29 00:41:32;;;;;;;6.95;3.70;;;;;;;19.73;55.04;98655.81;5111109;28;20015;-38
2022/09/29 00:43:58;;;;;;;7.18;3.45;;;;;;;19.75;54.85;98658.22;5110842;28;20024;-36
2022/09/29 00:46:41;;;;;;;6.20;3.55;;;;;;;19.70;54.48;98656.34;5110836;28;20024;-38
2022/09/29 00:49:27;;;;;;;7.05;3.30;;;;;;;19.65;54.32;98661.84;5110606;28;20054;-37
2022/09/29 00:52:00;;;;;;;4.40;3.10;;;;;;;19.60;54.08;98653.81;5110555;28;20102;-37
2022/09/29 00:54:31;;;;;;;8.93;3.30;;;;;;;19.61;53.92;98661.63;5111001;28;20015;-37
2022/09/29 00:57:01;;;;;;;6.43;3.08;;;;;;;19.56;53.62;98661.66;5110825;28;20430;-37
2022/09/29 00:59:34;;;;;;;10.20;3.20;;;;;;;19.50;53.83;98666.31;5111095;28;20434;-36
2022/09/29 01:02:03;;;;;;;6.95;2.80;;;;;;;19.57;53.04;98663.25;5110909;28;20027;-36
2022/09/29 01:04:29;;;;;;;4.18;3.00;;;;;;;19.45;53.79;98652.09;5110809;28;20085;-36
2022/09/29 01:06:57;;;;;;;6.40;2.92;;;;;;;19.44;53.94;98655.88;5110813;28;20036;-37
2022/09/29 01:09:42;;;;;;;5.70;2.85;;;;;;;19.55;54.17;98660.03;5110702;28;20085;-37
2022/09/29 01:12:07;;;;;;;8.07;3.10;;;;;;;19.69;53.47;98660.16;5110821;28;20047;-36
2022/09/29 01:14:36;;;;;;;3.75;3.00;;;;;;;19.59;54.00;98671.06;5110880;28;20089;-36
2022/09/29 01:17:02;;;;;;;7.90;3.10;;;;;;;19.37;54.62;98668.91;5110651;28;20024;-38
2022/09/29 01:19:49;;;;;;;6.72;3.17;;;;;;;19.40;54.96;98669.16;5109751;28;20442;-37
2022/09/29 01:22:42;;;;;;;6.78;3.15;;;;;;;19.42;55.14;98674.22;5110643;28;20026;-37
2022/09/29 01:25:41;;;;;;;4.70;2.97;;;;;;;19.38;55.26;98676.72;5110638;28;20024;-37
2022/09/29 01:28:06;;;;;;;6.90;3.42;;;;;;;19.38;55.29;98684.00;5110217;28;20042;-36
2022/09/29 01:30:53;;;;;;;7.28;3.40;;;;;;;19.30;55.22;98693.53;5110473;28;20045;-36
2022/09/29 01:33:24;;;;;;;6.18;3.35;;;;;;;19.25;55.43;98693.59;5110461;28;20054;-36
2022/09/29 01:36:02;;;;;;;6.63;3.40;;;;;;;19.20;55.27;98707.13;5110518;28;20038;-36
2022/09/29 01:39:05;;;;;;;6.30;3.40;;;;;;;19.06;55.58;98697.00;5110697;28;20019;-37
2022/09/29 01:42:11;;;;;;;4.13;3.40;;;;;;;19.16;55.45;98706.09;5110375;28;20062;-37
2022/09/29 01:44:55;;;;;;;5.38;3.70;;;;;;;18.53;56.81;98715.75;5098993;28;20115;-37
2022/09/29 01:47:30;;;;;;;4.85;3.60;;;;;;;18.73;56.30;98720.16;5110391;28;20020;-37
2022/09/29 01:50:10;;;;;;;7.68;3.47;;;;;;;18.89;56.27;98716.31;5110124;28;20101;-37
2022/09/29 01:52:43;;;;;;;5.80;3.33;;;;;;;19.03;55.46;98729.91;5110285;28;20347;-36
2022/09/29 01:55:17;;;;;;;6.45;3.50;;;;;;;19.08;55.20;98729.09;5110045;28;20069;-37
2022/09/29 01:57:49;;;;;;;6.45;3.58;;;;;;;19.10;55.55;98745.78;5109963;28;20097;-37
2022/09/29 02:00:17;;;;;;;6.07;3.40;;;;;;;19.12;55.50;98746.28;5110295;28;20034;-37
2022/09/29 02:02:54;;;;;;;5.93;3.20;;;;;;;18.69;56.94;98735.28;5110259;28;20034;-37
2022/09/29 02:05:46;;;;;;;6.00;3.45;;;;;;;18.82;56.81;98733.88;5114394;28;20050;-37
2022/09/29 02:08:21;;;;;;;5.50;3.17;;;;;;;18.72;57.33;98740.94;5103259;28;20059;-36
2022/09/29 02:11:04;;;;;;;5.13;3.10;;;;;;;18.82;57.08;98744.66;5113943;28;20030;-36
2022/09/29 02:14:15;;;;;;;4.43;3.20;;;;;;;18.72;57.58;98749.00;5113814;28;20027;-37
2022/09/29 02:17:04;;;;;;;4.35;2.90;;;;;;;18.66;57.23;98708.94;5113763;28;20443;-37
2022/09/29 02:19:35;;;;;;;10.20;3.40;;;;;;;18.86;57.43;98733.03;5113750;28;20035;-36
2022/09/29 02:22:00;;;;;;;6.30;3.38;;;;;;;18.28;59.13;98722.91;5113935;28;20023;-36
2022/09/29 02:24:25;;;;;;;5.68;3.33;;;;;;;18.40;58.79;98727.97;5113642;28;20020;-37
2022/09/29 02:26:51;;;;;;;5.88;3.40;;;;;;;18.55;58.45;98732.44;5113574;28;20027;-37
2022/09/29 02:29:17;;;;;;;4.65;3.35;;;;;;;18.35;58.80;98720.72;5113391;28;20026;-37
2022/09/29 02:31:44;;;;;;;5.18;3.45;;;;;;;18.37;59.35;98733.88;5113674;28;20098;-37
2022/09/29 02:34:14;;;;;;;7.93;3.80;;;;;;;18.24;59.84;98729.94;5113373;28;20092;-37
2022/09/29 02:36:54;;;;;;;6.28;3.35;;;;;;;17.94;60.92;98729.03;5113497;28;20102;-37
2022/09/29 02:39:19;;;;;;;6.53;3.30;;;;;;;17.86;61.17;98726.91;5113881;28;20062;-37
2022/09/29 02:41:44;;;;;;;4.00;3.30;;;;;;;17.89;60.98;98733.63;5100741;28;20487;-37
2022/09/29 02:44:43;;;;;;;4.90;3.13;;;;;;;18.20;60.14;98733.47;5092644;28;20449;-37
2022/09/29 02:47:31;;;;;;;6.65;3.58;;;;;;;18.42;59.51;98739.25;5104416;28;20118;-37
2022/09/29 02:50:22;;;;;;;4.63;3.30;;;;;;;18.62;59.63;98741.03;5092566;28;20085;-37
2022/09/29 02:53:01;;;;;;;9.20;3.70;;;;;;;18.65;58.55;98748.53;5092946;28;20030;-37
2022/09/29 02:56:25;;;;;;;4.93;3.33;;;;;;;18.69;58.51;98744.19;5092601;28;20432;-37
2022/09/29 02:59:09;;;;;;;5.68;3.20;;;;;;;18.70;58.50;98740.41;5050125;28;20025;-37
2022/09/29 03:01:47;;;;;;;5.47;3.00;;;;;;;18.75;58.09;98745.78;5050356;28;20032;-37
2022/09/29 03:04:12;;;;;;;6.22;3.13;;;;;;;18.68;58.04;98753.34;5089876;28;20080;-37
2022/09/29 03:06:38;;;;;;;5.30;3.00;;;;;;;18.82;57.76;98755.44;5112492;28;20012;-37
2022/09/29 03:09:03;;;;;;;9.50;3.50;;;;;;;18.81;57.73;98754.66;5112286;28;20476;-37
2022/09/29 03:11:29;;;;;;;4.10;3.20;;;;;;;18.90;57.45;98744.84;5112207;28;20019;-37
2022/09/29 03:13:54;;;;;;;15.75;7.85;;;;;;;18.90;57.31;98749.44;5111807;28;20084;-37
2022/09/29 03:16:19;;;;;;;20.80;13.50;;;;;;;18.97;57.43;98746.44;5112144;28;20509;-37
2022/09/29 03:18:45;;;;;;;8.38;4.07;;;;;;;18.72;58.75;98748.22;5112164;28;20106;-37
2022/09/29 03:21:11;;;;;;;8.63;3.65;;;;;;;18.72;57.97;98748.22;5112007;28;20040;-37
2022/09/29 03:23:36;;;;;;;9.02;3.70;;;;;;;18.72;58.42;98750.91;5112603;28;20107;-37
2022/09/29 03:26:01;;;;;;;6.03;3.67;;;;;;;18.61;57.93;98733.22;5112773;28;20024;-36
2022/09/29 03:28:27;;;;;;;5.97;3.22;;;;;;;18.61;58.37;98749.38;5112316;28;20024;-37
2022/09/29 03:30:54;;;;;;;6.07;3.25;;;;;;;18.41;59.21;98740.34;5112853;28;20106;-37
2022/09/29 03:33:20;;;;;;;5.38;3.33;;;;;;;18.32;59.07;98744.72;5110268;28;20114;-37
2022/09/29 03:35:45;;;;;;;9.15;3.42;;;;;;;18.36;59.27;98741.16;5111141;28;20103;-38
2022/09/29 03:38:11;;;;;;;7.30;3.25;;;;;;;18.61;58.72;98744.00;5111099;28;20368;-37
2022/09/29 03:40:36;;;;;;;6.88;3.50;;;;;;;18.66;58.36;98738.56;5110896;28;20042;-38
2022/09/29 03:43:01;;;;;;;5.80;3.20;;;;;;;18.73;57.91;98744.41;5111703;28;20019;-36
2022/09/29 03:45:27;;;;;;;5.28;3.42;;;;;;;18.65;58.44;98737.75;5109801;28;20016;-36
2022/09/29 03:47:52;;;;;;;12.32;3.92;;;;;;;18.58;58.44;98737.25;5110097;28;20027;-36
2022/09/29 03:50:18;;;;;;;17.33;4.13;;;;;;;18.66;57.97;98746.66;5110082;28;20563;-36
2022/09/29 03:52:43;;;;;;;12.23;4.38;;;;;;;18.62;57.97;98750.97;5110468;27;20020;-36
2022/09/29 03:55:09;;;;;;;10.82;4.07;;;;;;;18.63;57.97;98756.09;5110460;28;20016;-36
2022/09/29 03:57:34;;;;;;;9.68;3.30;;;;;;;18.39;58.59;98755.16;5110987;28;20497;-37
2022/09/29 04:00:00;;;;;;;6.90;3.60;;;;;;;18.40;58.59;98759.47;5110980;28;20368;-36
2022/09/29 04:02:25;;;;;;;11.60;3.85;;;;;;;18.44;58.83;98761.31;5111305;28;20025;-36
2022/09/29 04:04:50;;;;;;;96.30;78.72;;;;;;;18.54;67.31;98757.75;5110804;28;20114;-37
2022/09/29 04:07:16;;;;;;;15.75;8.95;;;;;;;19.15;62.30;98756.50;5111119;28;20024;-37
2022/09/29 04:09:42;;;;;;;10.07;4.22;;;;;;;19.19;57.40;98754.03;5111176;28;20135;-36
2022/09/29 04:12:07;;;;;;;9.15;3.70;;;;;;;19.03;57.42;98764.16;5111204;28;20020;-37
2022/09/29 04:14:32;;;;;;;14.90;3.92;;;;;;;18.91;57.68;98778.81;5111103;28;20107;-36
2022/09/29 04:16:58;;;;;;;8.32;4.05;;;;;;;18.90;57.34;98779.09;5111128;28;20023;-36
2022/09/29 04:19:23;;;;;;;28.30;16.20;;;;;;;18.68;58.22;98782.22;5111328;28;20031;-37
2022/09/29 04:21:49;;;;;;;15.13;8.32;;;;;;;18.60;58.45;98780.09;5111378;27;20023;-37
2022/09/29 04:24:14;;;;;;;12.57;5.80;;;;;;;18.58;58.49;98788.44;5111390;28;20038;-36
2022/09/29 04:26:40;;;;;;;13.23;4.57;;;;;;;18.51;58.80;98785.28;5110589;28;20031;-36
2022/09/29 04:29:06;;;;;;;12.38;4.25;;;;;;;18.48;58.84;98791.22;5110973;28;20027;-38
2022/09/29 04:31:31;;;;;;;10.70;4.20;;;;;;;18.45;58.61;98789.88;5111383;28;20020;-35
2022/09/29 04:33:56;;;;;;;12.85;5.38;;;;;;;18.51;58.93;98799.53;5111235;28;20051;-37
2022/09/29 04:36:22;;;;;;;18.27;7.75;;;;;;;18.49;58.86;98804.41;5111202;28;20015;-37
2022/09/29 04:38:50;;;;;;;8.95;4.65;;;;;;;18.49;58.64;98806.31;5110749;28;20042;-36
2022/09/29 04:41:16;;;;;;;14.55;4.25;;;;;;;18.50;59.03;98819.47;5098263;28;20023;-36
2022/09/29 04:43:42;;;;;;;10.55;4.15;;;;;;;18.58;58.58;98817.28;5095410;28;20036;-37
2022/09/29 04:46:07;;;;;;;14.43;4.93;;;;;;;18.72;58.66;98824.47;5107069;28;20048;-37
2022/09/29 04:48:34;;;;;;;9.75;5.00;;;;;;;18.97;58.07;98844.28;5110878;28;20016;-37
2022/09/29 04:51:00;;;;;;;8.57;3.80;;;;;;;18.71;58.26;98835.53;5110736;28;20031;-36
2022/09/29 04:53:26;;;;;;;5.57;3.95;;;;;;;18.31;59.10;98840.84;5111021;28;20031;-37
2022/09/29 04:55:52;;;;;;;10.85;3.70;;;;;;;18.21;59.85;98834.72;5110922;28;20027;-37
2022/09/29 04:58:17;;;;;;;5.65;3.35;;;;;;;18.52;59.08;98828.09;5110759;28;20027;-37
2022/09/29 05:00:43;;;;;;;5.45;3.55;;;;;;;19.07;57.68;98822.63;5110818;28;20426;-37
2022/09/29 05:03:08;;;;;;;7.20;3.83;;;;;;;19.64;55.57;98824.84;5111165;28;20146;-37
2022/09/29 05:05:33;;;;;;;6.30;3.28;;;;;;;19.87;54.53;98818.66;5110647;28;20523;-37
2022/09/29 05:08:03;;;;;;;6.65;3.17;;;;;;;19.99;53.93;98825.56;5108639;28;20113;-37
2022/09/29 05:10:28;;;;;;;6.15;3.25;;;;;;;20.27;53.01;98829.28;5108611;28;20051;-37
2022/09/29 05:12:53;;;;;;;5.70;2.90;;;;;;;20.41;52.51;98830.19;5108905;28;20043;-37
2022/09/29 05:15:19;;;;;;;6.38;3.10;;;;;;;20.85;51.20;98833.66;5109027;28;20019;-35
2022/09/29 05:17:44;;;;;;;7.43;3.25;;;;;;;21.33;50.58;98832.63;5110064;28;20094;-36
2022/09/29 05:20:11;;;;;;;7.68;3.10;;;;;;;21.75;49.33;98837.06;5109700;28;20126;-37
2022/09/29 05:22:37;;;;;;;8.52;3.03;;;;;;;22.25;48.56;98837.19;5110530;28;20482;-37
2022/09/29 05:25:02;;;;;;;9.60;3.50;;;;;;;22.01;48.50;98831.97;5110388;28;20055;-36
2022/09/29 05:27:28;;;;;;;5.35;3.10;;;;;;;22.18;47.59;98838.66;5110491;28;20021;-37
2022/09/29 05:29:53;;;;;;;7.30;2.92;;;;;;;22.48;47.29;98848.09;5110407;28;20209;-37
2022/09/29 05:32:19;;;;;;;6.45;3.45;;;;;;;22.61;47.41;98836.41;5110253;28;20048;-36
2022/09/29 05:34:44;;;;;;;4.15;2.88;;;;;;;23.03;45.97;98831.69;5110126;28;20076;-36
2022/09/29 05:37:10;;;;;;;5.55;3.03;;;;;;;23.28;45.30;98834.09;5110759;28;20053;-38
2022/09/29 05:39:36;;;;;;;7.22;3.03;;;;;;;24.02;44.00;98832.72;5114490;28;20088;-37
2022/09/29 05:42:09;;;;;;;5.57;3.05;;;;;;;24.65;42.67;98826.00;5114284;28;20027;-37
2022/09/29 05:44:34;;;;;;;5.40;2.60;;;;;;;25.10;41.31;98825.69;5112831;28;20027;-38
2022/09/29 05:46:59;;;;;;;6.35;2.83;;;;;;;25.33;40.67;98823.59;5114045;28;20035;-37
2022/09/29 05:49:25;;;;;;;6.15;2.58;;;;;;;25.60;40.37;98827.03;5114460;28;20234;-39
2022/09/29 05:51:51;;;;;;;6.57;2.80;;;;;;;25.94;39.78;98836.22;5114491;28;20040;-37
2022/09/29 05:54:16;;;;;;;8.90;2.60;;;;;;;26.22;39.23;98828.41;5114283;28;20031;-36
2022/09/29 05:56:42;;;;;;;5.68;2.50;;;;;;;26.48;38.50;98828.25;5114252;28;20035;-36
2022/09/29 05:59:08;;;;;;;5.38;2.50;;;;;;;26.58;38.16;98818.03;5114258;28;20023;-36
2022/09/29 06:01:34;;;;;;;6.47;3.92;;;;;;;27.06;37.33;98822.19;5113894;28;20019;-36
2022/09/29 06:04:00;;;;;;;6.15;2.83;;;;;;;27.58;36.73;98821.66;5113797;28;20028;-36
2022/09/29 06:06:28;;;;;;;5.15;2.72;;;;;;;27.85;35.97;98822.16;5113562;28;20483;-36
2022/09/29 06:08:54;;;;;;;3.72;2.60;;;;;;;28.18;35.18;98816.59;5113327;28;20558;-36
2022/09/29 06:11:26;;;;;;;7.47;2.50;;;;;;;28.51;33.87;98806.63;5113623;28;20039;-36
2022/09/29 06:13:52;;;;;;;4.57;2.53;;;;;;;28.93;33.81;98806.28;5113585;28;20410;-36
2022/09/29 06:16:23;;;;;;;6.72;2.80;;;;;;;29.41;33.49;98804.47;5113567;28;20523;-36
2022/09/29 06:18:48;;;;;;;6.45;3.20;;;;;;;29.76;32.55;98801.88;5113676;28;20022;-36
2022/09/29 06:21:17;;;;;;;9.52;4.47;;;;;;;29.91;32.09;98805.75;5113205;28;20039;-37
2022/09/29 06:23:43;;;;;;;5.65;3.28;;;;;;;30.21;31.32;98797.81;5113550;28;20020;-37
2022/09/29 06:26:11;;;;;;;7.85;3.08;;;;;;;30.28;31.08;98801.88;5113063;28;20491;-37
2022/09/29 06:28:37;;;;;;;6.97;3.00;;;;;;;30.72;30.82;98796.16;5113956;28;20115;-37
2022/09/29 06:31:05;;;;;;;3.88;2.67;;;;;;;30.87;29.78;98797.25;5114322;28;20114;-38
2022/09/29 06:33:32;;;;;;;4.57;2.50;;;;;;;30.72;30.49;98799.69;5114066;28;20019;-37
2022/09/29 06:38:44;;;;;;;5.90;2.40;;;;;;;31.25;29.67;98806.63;5107834;28;20432;-36
2022/09/29 06:41:09;;;;;;;9.43;2.60;;;;;;;31.03;30.06;98811.72;5096071;28;20049;-37
2022/09/29 06:43:34;;;;;;;10.23;2.70;;;;;;;31.26;29.92;98810.94;5113049;28;20024;-37
2022/09/29 06:46:00;;;;;;;5.60;2.50;;;;;;;31.52;28.94;98805.56;5113245;28;20020;-37
2022/09/29 06:48:28;;;;;;;4.78;2.50;;;;;;;31.76;28.64;98811.88;5112485;28;20045;-37
2022/09/29 06:50:54;;;;;;;12.30;2.80;;;;;;;31.85;28.89;98808.84;5112818;28;20035;-37
2022/09/29 06:53:20;;;;;;;9.57;2.30;;;;;;;31.83;28.70;98811.97;5112907;28;20032;-37
2022/09/29 06:55:52;;;;;;;7.10;2.83;;;;;;;31.91;28.54;98812.88;5112644;28;20407;-36
2022/09/29 06:58:18;;;;;;;5.10;2.30;;;;;;;31.32;29.59;98802.06;5111635;28;20026;-37
2022/09/29 07:00:43;;;;;;;6.57;2.50;;;;;;;31.71;29.21;98804.69;5110808;28;20019;-36
2022/09/29 07:03:08;;;;;;;5.18;2.60;;;;;;;31.87;28.87;98801.84;5110735;28;20106;-37
2022/09/29 07:05:34;;;;;;;7.72;2.65;;;;;;;31.96;28.89;98810.59;5111083;28;20027;-37
2022/09/29 07:08:00;;;;;;;7.20;3.17;;;;;;;31.84;29.30;98821.03;5111131;28;20020;-35
2022/09/29 07:10:25;;;;;;;7.40;3.38;;;;;;;31.70;29.71;98827.06;5111149;28;20027;-35
2022/09/29 07:12:51;;;;;;;5.40;2.60;;;;;;;32.38;28.85;98828.13;5111572;28;20016;-36
2022/09/29 07:15:16;;;;;;;7.18;2.53;;;;;;;32.68;28.33;98832.91;5112281;28;20047;-36
2022/09/29 07:17:42;;;;;;;8.48;2.70;;;;;;;32.48;28.42;98832.19;5112007;28;20146;-37
2022/09/29 07:20:07;;;;;;;9.52;2.30;;;;;;;32.30;27.78;98837.47;5111936;28;20028;-37
2022/09/29 07:22:33;;;;;;;5.45;2.50;;;;;;;32.23;27.95;98829.88;5112224;28;20027;-36
2022/09/29 07:24:58;;;;;;;6.25;2.97;;;;;;;31.91;28.77;98830.19;5111865;28;20020;-37
2022/09/29 07:27:24;;;;;;;6.28;3.00;;;;;;;31.96;28.86;98829.84;5112243;28;20453;-36
2022/09/29 07:29:50;;;;;;;6.72;2.53;;;;;;;32.71;27.90;98832.94;5112180;28;20020;-37
2022/09/29 07:32:16;;;;;;;7.40;2.33;;;;;;;32.98;27.50;98830.13;5112202;28;20448;-37
2022/09/29 07:34:42;;;;;;;6.22;2.47;;;;;;;32.76;27.38;98831.03;5112573;28;20098;-36
2022/09/29 07:37:07;;;;;;;4.40;2.40;;;;;;;33.38;26.66;98825.06;5112186;28;20095;-36
2022/09/29 07:39:33;;;;;;;7.45;2.30;;;;;;;33.35;26.69;98823.03;5111942;28;20134;-37
2022/09/29 07:41:58;;;;;;;6.90;2.67;;;;;;;33.60;26.20;98813.03;5111604;28;20416;-37
2022/09/29 07:44:24;;;;;;;8.38;2.55;;;;;;;33.39;26.20;98821.91;5111715;28;20024;-37
2022/09/29 07:46:49;;;;;;;3.83;2.50;;;;;;;32.40;27.85;98825.00;5111863;28;20106;-38
2022/09/29 07:49:15;;;;;;;7.35;2.30;;;;;;;32.83;27.07;98826.41;5111510;28;20114;-37
2022/09/29 07:51:40;;;;;;;6.63;2.47;;;;;;;33.21;27.04;98826.47;5111460;28;20038;-37
2022/09/29 07:54:06;;;;;;;7.93;2.78;;;;;;;32.95;27.05;98833.59;5111261;28;20102;-37
2022/09/29 07:56:32;;;;;;;9.73;2.60;;;;;;;32.36;27.19;98830.47;5111453;28;20068;-37
2022/09/29 07:58:58;;;;;;;9.77;2.80;;;;;;;31.19;29.01;98844.59;5111393;28;20384;-37
2022/09/29 08:01:23;;;;;;;6.28;3.00;;;;;;;31.70;28.27;98840.81;5110677;28;20027;-35
2022/09/29 08:03:53;;;;;;;9.98;3.20;;;;;;;31.87;28.15;98843.09;5111570;28;20058;-36
2022/09/29 08:06:20;;;;;;;8.48;4.63;;;;;;;31.14;29.48;98851.16;5111672;28;20023;-36
2022/09/29 08:08:46;;;;;;;10.27;3.60;;;;;;;29.93;31.51;98847.31;5111692;28;20043;-37
2022/09/29 08:11:14;;;;;;;15.77;3.88;;;;;;;30.14;30.74;98847.03;5111653;28;20027;-38
2022/09/29 08:13:40;;;;;;;9.27;3.50;;;;;;;30.34;30.48;98850.66;5111131;28;20028;-37
2022/09/29 08:16:09;;;;;;;9.35;2.80;;;;;;;30.84;29.72;98850.13;5111325;28;20031;-37
2022/09/29 08:18:35;;;;;;;9.25;3.03;;;;;;;31.25;29.84;98856.09;5111330;28;20137;-37
2022/09/29 08:21:01;;;;;;;6.78;3.10;;;;;;;31.77;29.42;98852.72;5111117;28;20169;-36
2022/09/29 08:23:27;;;;;;;8.25;2.60;;;;;;;32.50;27.89;98860.16;5111294;28;20019;-38
2022/09/29 08:26:04;;;;;;;8.00;4.03;;;;;;;32.70;27.17;98861.63;5111584;28;20029;-37
2022/09/29 08:28:31;;;;;;;9.45;3.38;;;;;;;32.79;27.63;98866.88;5110893;28;20027;-37
2022/09/29 08:31:00;;;;;;;7.03;2.50;;;;;;;32.81;27.72;98866.50;5111072;28;20030;-36
2022/09/29 08:33:26;;;;;;;7.68;2.72;;;;;;;32.56;27.51;98864.19;5110957;28;20024;-36
2022/09/29 08:35:56;;;;;;;12.23;3.10;;;;;;;32.94;27.41;98859.59;5111184;28;20020;-36
2022/09/29 08:38:21;;;;;;;6.55;2.90;;;;;;;33.37;26.89;98859.28;5111423;28;20023;-37
2022/09/29 08:40:47;;;;;;;10.77;3.20;;;;;;;32.71;27.32;98868.75;5110869;28;20023;-37
2022/09/29 08:43:22;;;;;;;10.60;3.20;;;;;;;32.90;27.35;98847.72;5111160;28;20026;-37
2022/09/29 08:46:14;;;;;;;8.10;3.05;;;;;;;32.47;27.99;98855.41;5111152;28;20081;-37
2022/09/29 08:48:43;;;;;;;12.43;6.57;;;;;;;32.34;28.76;98847.34;5110702;28;20042;-37
2022/09/29 08:51:26;;;;;;;13.90;6.53;;;;;;;31.64;29.76;98848.56;5110283;28;20053;-37
2022/09/29 08:53:56;;;;;;;35.70;18.60;;;;;;;32.02;29.33;98848.81;5110504;28;20045;-37
2022/09/29 08:56:21;;;;;;;25.92;12.95;;;;;;;32.78;27.85;98853.47;5110786;28;20115;-36
2022/09/29 08:58:47;;;;;;;23.70;9.30;;;;;;;33.39;27.58;98848.69;5110952;28;20411;-37
2022/09/29 09:01:15;;;;;;;25.52;11.80;;;;;;;33.17;27.60;98853.16;5110473;28;20437;-36
2022/09/29 09:03:46;;;;;;;23.45;10.57;;;;;;;32.51;27.74;98850.72;5110404;28;20065;-37
2022/09/29 09:06:31;;;;;;;9.10;3.97;;;;;;;32.56;27.79;98847.66;5110066;28;20031;-37
2022/09/29 09:09:09;;;;;;;4.53;3.17;;;;;;;32.78;26.99;98850.72;5109813;28;20064;-37
2022/09/29 09:11:43;;;;;;;6.88;2.85;;;;;;;32.84;27.72;98846.47;5109920;28;20055;-37
2022/09/29 09:14:23;;;;;;;7.47;2.40;;;;;;;33.02;27.49;98843.94;5110334;28;20397;-37
2022/09/29 09:17:05;;;;;;;5.18;2.78;;;;;;;33.42;26.98;98843.22;5110138;28;20023;-37
2022/09/29 09:19:42;;;;;;;5.82;2.47;;;;;;;33.86;26.32;98844.41;5110212;28;20100;-37
2022/09/29 09:22:24;;;;;;;4.32;2.75;;;;;;;33.42;26.34;98845.19;5110158;28;20023;-37
2022/09/29 09:25:18;;;;;;;3.33;2.35;;;;;;;33.33;26.16;98839.19;5110223;28;20024;-36
2022/09/29 09:27:51;;;;;;;6.70;2.50;;;;;;;33.50;26.29;98836.59;5101611;28;20098;-37
2022/09/29 09:30:20;;;;;;;7.55;2.60;;;;;;;33.63;25.89;98831.63;5110278;28;20060;-37
2022/09/29 09:32:55;;;;;;;8.02;3.20;;;;;;;33.80;26.07;98827.41;5110256;28;20466;-37
2022/09/29 09:35:26;;;;;;;5.63;2.60;;;;;;;34.14;26.07;98821.75;5110594;28;20457;-37
2022/09/29 09:37:54;;;;;;;6.78;3.20;;;;;;;33.41;26.38;98824.28;5110562;28;20148;-37
2022/09/29 09:40:40;;;;;;;6.07;2.63;;;;;;;33.51;26.11;98807.06;5110198;28;20042;-36
2022/09/29 09:43:18;;;;;;;10.18;3.20;;;;;;;33.62;26.38;98807.13;5109922;28;20016;-37
2022/09/29 09:46:12;;;;;;;8.80;3.13;;;;;;;33.54;26.66;98806.28;5110169;28;20076;-37
2022/09/29 09:48:43;;;;;;;5.78;2.70;;;;;;;32.82;27.31;98810.25;5109949;28;20269;-37
2022/09/29 09:51:25;;;;;;;9.25;2.72;;;;;;;32.24;27.89;98814.97;5110309;28;20088;-37
2022/09/29 09:53:54;;;;;;;9.75;2.58;;;;;;;32.30;27.75;98805.22;5110333;28;20103;-36
2022/09/29 09:57:00;;;;;;;8.20;2.90;;;;;;;32.54;27.31;98809.50;5110489;28;20210;-36
2022/09/29 09:59:50;;;;;;;6.70;2.75;;;;;;;32.32;27.67;98791.88;5027763;28;20025;-36
2022/09/29 10:02:19;;;;;;;9.02;3.17;;;;;;;32.50;27.89;98811.41;5106202;28;20047;-37
2022/09/29 10:04:45;;;;;;;;;;;;;;;33.24;27.02;98809.97;5110472;28;20513;-37
2022/09/29 10:07:11;;;;;;;10.07;3.30;;;;;;;33.29;27.27;98809.59;5109982;28;20410;-39
2022/09/29 10:09:36;;;;;;;12.48;3.25;;;;;;;33.57;26.91;98811.03;5110090;28;20122;-36
2022/09/29 10:12:02;;;;;;;9.05;2.88;;;;;;;33.85;26.20;98820.75;5110605;28;20024;-37
2022/09/29 10:14:27;;;;;;;6.72;2.67;;;;;;;33.60;26.79;98820.50;5109882;28;20020;-37
2022/09/29 10:16:58;;;;;;;9.27;3.08;;;;;;;33.71;26.18;98818.66;5109912;28;20023;-38
2022/09/29 10:20:05;;;;;;;4.53;2.33;;;;;;;33.75;26.44;98819.50;5109801;28;20023;-39
2022/09/29 10:22:31;;;;;;;5.18;2.53;;;;;;;33.91;26.52;98823.94;5110197;28;20073;-37
2022/09/29 10:25:17;;;;;;;8.25;2.83;;;;;;;33.88;26.45;98820.00;5112246;28;20020;-40
2022/09/29 10:27:47;;;;;;;8.88;2.70;;;;;;;34.08;26.37;98815.00;5113518;28;20038;-38
2022/09/29 10:30:31;;;;;;;8.52;2.47;;;;;;;33.75;26.68;98824.22;5113967;28;20027;-38
2022/09/29 10:33:00;;;;;;;6.78;2.72;;;;;;;33.24;27.11;98823.75;5113595;28;20019;-37
2022/09/29 10:35:36;;;;;;;5.75;3.30;;;;;;;32.50;28.06;98814.16;5112128;28;20542;-36
2022/09/29 10:38:05;;;;;;;4.20;3.00;;;;;;;32.09;28.36;98807.69;5113974;28;20026;-37
2022/09/29 10:40:31;;;;;;;6.53;3.33;;;;;;;32.17;28.51;98808.56;5113155;27;20463;-36
2022/09/29 10:42:57;;;;;;;7.40;3.25;;;;;;;32.33;28.39;98807.25;5113391;28;20031;-36
2022/09/29 10:45:28;;;;;;;5.82;3.60;;;;;;;32.47;28.71;98805.84;5113358;28;20027;-37
2022/09/29 10:47:57;;;;;;;8.32;4.63;;;;;;;32.53;28.25;98807.09;5113639;28;20024;-37
2022/09/29 10:50:26;;;;;;;6.20;5.10;;;;;;;32.74;28.00;98795.59;5113056;28;20525;-37
2022/09/29 10:52:52;;;;;;;6.78;5.90;;;;;;;32.14;28.73;98799.13;5113353;28;20035;-37
2022/09/29 10:55:20;;;;;;;12.95;7.82;;;;;;;31.83;29.09;98791.91;5113435;28;20027;-37
2022/09/29 10:57:47;;;;;;;;;;;;;;;32.08;28.87;98792.31;5113752;28;20098;-37
2022/09/29 11:00:33;;;;;;;10.65;7.50;;;;;;;31.96;29.81;98785.06;5113144;28;19915;-37
2022/09/29 11:03:18;;;;;;;10.73;7.55;;;;;;;32.08;29.65;98795.06;5112818;28;20043;-37
2022/09/29 11:06:02;;;;;;;12.23;8.57;;;;;;;32.81;28.68;98794.91;5112743;28;20083;-37
2022/09/29 11:08:28;;;;;;;12.70;8.10;;;;;;;32.85;27.60;98792.97;5112900;28;20084;-37
2022/09/29 11:11:03;;;;;;;12.07;7.95;;;;;;;32.36;28.31;98782.88;5112746;28;20030;-37
2022/09/29 11:13:33;;;;;;;8.75;7.35;;;;;;;32.59;27.86;98777.31;5113170;28;20041;-37
2022/09/29 11:16:28;;;;;;;11.73;7.35;;;;;;;33.03;27.25;98771.13;5112529;28;20051;-37
2022/09/29 11:18:57;;;;;;;9.00;6.25;;;;;;;33.26;27.44;98765.47;5112936;28;20020;-36
2022/09/29 11:21:41;;;;;;;5.72;5.10;;;;;;;32.80;27.66;98765.75;5112336;28;20090;-37
2022/09/29 11:24:21;;;;;;;7.18;4.85;;;;;;;32.59;27.99;98763.53;5112476;28;20023;-37
2022/09/29 11:27:02;;;;;;;7.80;4.85;;;;;;;32.39;28.74;98763.66;5112074;28;20036;-37
2022/09/29 11:29:56;;;;;;;9.23;4.82;;;;;;;32.39;28.17;98751.88;5112334;27;20063;-37
2022/09/29 11:32:29;;;;;;;6.82;3.83;;;;;;;31.74;28.80;98753.69;5112356;28;20051;-37
2022/09/29 11:35:13;;;;;;;4.63;3.30;;;;;;;31.15;30.11;98759.38;5112207;28;20051;-37
2022/09/29 11:37:47;;;;;;;4.80;3.35;;;;;;;31.42;29.77;98756.69;5112228;28;20402;-37
2022/09/29 11:40:40;;;;;;;4.80;3.40;;;;;;;31.88;29.12;98764.91;5111960;28;20028;-37
2022/09/29 11:43:23;;;;;;;5.38;3.30;;;;;;;31.84;28.93;98757.75;5112173;28;20159;-36
2022/09/29 11:46:04;;;;;;;6.65;3.22;;;;;;;31.36;30.18;98758.94;5112278;28;20030;-36
2022/09/29 11:49:04;;;;;;;9.93;3.55;;;;;;;31.22;30.06;98749.66;5112492;28;20362;-36
2022/09/29 11:51:43;;;;;;;5.03;3.10;;;;;;;31.87;29.38;98752.31;5111835;28;20057;-37